createdAt,value
2022-09-11T00:01:17.497Z,31.10
2022-09-11T00:03:46.603Z,33.97
2022-09-11T00:06:27.462Z,33.40
2022-09-11T00:09:00.405Z,30.30
2022-09-11T00:11:29.837Z,30.30
2022-09-11T00:13:56.831Z,32.50
2022-09-11T00:16:30.595Z,30.43
2022-09-11T00:19:02.104Z,31.33
2022-09-11T00:21:29.576Z,31.50
2022-09-11T00:23:57.759Z,30.73
2022-09-11T00:26:25.102Z,34.43
2022-09-11T00:28:52.889Z,34.03
2022-09-11T00:31:26.376Z,32.20
2022-09-11T00:33:54.089Z,32.13
2022-09-11T00:36:26.675Z,31.97
2022-09-11T00:38:54.791Z,31.73
2022-09-11T00:41:31.254Z,31.43
2022-09-11T00:44:26.767Z,31.30
2022-09-11T00:47:00.611Z,29.43
2022-09-11T00:49:40.796Z,31.83
2022-09-11T00:52:23.783Z,31.93
2022-09-11T00:55:13.094Z,30.93
2022-09-11T00:57:47.131Z,32.10
2022-09-11T01:00:14.586Z,33.73
2022-09-11T01:02:45.040Z,32.27
2022-09-11T01:05:12.954Z,31.73
2022-09-11T01:07:41.493Z,32.70
2022-09-11T01:10:10.625Z,32.43
2022-09-11T01:12:58.178Z,31.10
2022-09-11T01:15:35.286Z,31.63
2022-09-11T01:18:53.888Z,32.57
2022-09-11T01:22:10.656Z,30.90
2022-09-11T01:25:17.784Z,30.87
2022-09-11T01:27:53.277Z,32.33
2022-09-11T01:30:52.474Z,30.60
2022-09-11T01:33:44.937Z,32.03
2022-09-11T01:36:26.885Z,31.37
2022-09-11T01:39:00.844Z,30.93
2022-09-11T01:41:30.422Z,30.43
2022-09-11T01:44:28.905Z,32.93
2022-09-11T01:46:56.269Z,28.90
2022-09-11T01:49:43.740Z,29.97
2022-09-11T01:52:17.501Z,27.37
2022-09-11T01:54:59.831Z,29.80
2022-09-11T01:57:39.655Z,32.30
2022-09-11T02:00:10.971Z,29.43
2022-09-11T02:02:43.907Z,32.90
2022-09-11T02:05:29.027Z,30.10
2022-09-11T02:08:04.475Z,32.30
2022-09-11T02:10:42.776Z,28.90
2022-09-11T02:13:17.449Z,30.47
2022-09-11T02:15:48.714Z,27.80
2022-09-11T02:18:29.454Z,30.00
2022-09-11T02:20:57.307Z,30.77
2022-09-11T02:23:24.267Z,29.50
2022-09-11T02:25:51.211Z,29.70
2022-09-11T02:28:18.221Z,30.00
2022-09-11T02:30:46.856Z,27.80
2022-09-11T02:33:36.311Z,28.93
2022-09-11T02:36:31.366Z,31.20
2022-09-11T02:39:34.031Z,32.90
2022-09-11T02:42:41.924Z,32.87
2022-09-11T02:45:46.113Z,36.60
2022-09-11T02:48:57.236Z,37.20
2022-09-11T02:51:56.512Z,36.80
2022-09-11T02:55:11.824Z,35.33
2022-09-11T02:57:51.329Z,33.80
2022-09-11T03:00:18.350Z,32.83
2022-09-11T03:02:47.719Z,30.33
2022-09-11T03:05:14.675Z,31.57
2022-09-11T03:07:41.953Z,29.37
2022-09-11T03:10:11.280Z,33.10
2022-09-11T03:12:39.831Z,31.43
2022-09-11T03:15:07.982Z,28.03
2022-09-11T03:17:34.858Z,33.50
2022-09-11T03:20:02.233Z,29.47
2022-09-11T03:22:29.105Z,30.73
2022-09-11T03:24:55.909Z,33.70
2022-09-11T03:27:23.915Z,30.10
2022-09-11T03:29:50.807Z,34.10
2022-09-11T03:32:17.770Z,31.43
2022-09-11T03:34:44.646Z,30.77
2022-09-11T03:37:11.502Z,30.70
2022-09-11T03:39:38.357Z,29.50
2022-09-11T03:42:05.582Z,29.90
2022-09-11T03:44:32.400Z,31.13
2022-09-11T03:46:59.250Z,30.10
2022-09-11T03:49:26.067Z,29.70
2022-09-11T03:51:52.944Z,33.00
2022-09-11T03:54:21.030Z,30.77
2022-09-11T03:56:47.889Z,28.03
2022-09-11T03:59:14.854Z,31.67
2022-09-11T04:01:41.761Z,32.77
2022-09-11T04:04:08.660Z,32.07
2022-09-11T04:06:35.688Z,31.03
2022-09-11T04:09:03.024Z,33.50
2022-09-11T04:11:34.297Z,33.43
2022-09-11T04:14:03.696Z,32.33
2022-09-11T04:16:32.972Z,32.20
2022-09-11T04:19:03.587Z,32.57
2022-09-11T04:21:31.900Z,33.00
2022-09-11T04:24:00.288Z,34.90
2022-09-11T04:26:29.589Z,34.03
2022-09-11T04:28:57.342Z,34.50
2022-09-11T04:31:24.527Z,32.17
2022-09-11T04:33:54.771Z,37.27
2022-09-11T04:36:26.125Z,36.93
2022-09-11T04:38:58.293Z,36.00
2022-09-11T04:41:26.284Z,32.80
2022-09-11T04:44:02.423Z,37.10
2022-09-11T04:46:31.562Z,34.33
2022-09-11T04:48:59.521Z,35.50
2022-09-11T04:51:30.254Z,34.50
2022-09-11T04:53:58.629Z,33.90
2022-09-11T04:56:29.162Z,34.33
2022-09-11T04:58:58.476Z,34.73
2022-09-11T05:01:27.212Z,34.63
2022-09-11T05:03:54.231Z,33.60
2022-09-11T05:06:21.382Z,31.27
2022-09-11T05:08:48.470Z,32.70
2022-09-11T05:11:19.182Z,31.40
2022-09-11T05:13:46.643Z,32.30
2022-09-11T05:16:16.838Z,32.57
2022-09-11T05:18:52.015Z,30.73
2022-09-11T05:21:22.771Z,29.37
2022-09-11T05:23:52.093Z,29.10
2022-09-11T05:26:24.168Z,29.10
2022-09-11T05:28:59.752Z,33.50
2022-09-11T05:31:29.018Z,31.00
2022-09-11T05:33:57.190Z,31.73
2022-09-11T05:36:24.886Z,31.17
2022-09-11T05:38:52.960Z,32.07
2022-09-11T05:41:20.446Z,31.03
2022-09-11T05:43:47.570Z,33.70
2022-09-11T05:46:16.987Z,33.77
2022-09-11T05:48:44.507Z,31.63
2022-09-11T05:51:20.129Z,31.23
2022-09-11T05:53:47.819Z,31.67
2022-09-11T05:56:17.132Z,30.57
2022-09-11T05:58:46.441Z,31.73
2022-09-11T06:01:28.971Z,31.10
2022-09-11T06:03:56.729Z,28.67
2022-09-11T06:06:24.691Z,29.80
2022-09-11T06:08:53.099Z,30.07
2022-09-11T06:11:21.782Z,32.97
2022-09-11T06:13:49.534Z,31.40
2022-09-11T06:16:19.166Z,32.07
2022-09-11T06:18:50.577Z,31.57
2022-09-11T06:21:23.310Z,29.43
2022-09-11T06:23:52.088Z,28.30
2022-09-11T06:26:24.883Z,27.30
2022-09-11T06:28:53.309Z,28.40
2022-09-11T06:31:22.817Z,29.20
2022-09-11T06:33:51.164Z,27.77
2022-09-11T06:36:24.038Z,31.40
2022-09-11T06:38:55.759Z,29.47
2022-09-11T06:41:24.559Z,29.03
2022-09-11T06:43:52.845Z,33.73
2022-09-11T06:46:22.410Z,30.60
2022-09-11T06:48:51.049Z,27.40
2022-09-11T06:51:20.003Z,26.07
2022-09-11T06:53:47.540Z,32.43
2022-09-11T06:56:16.778Z,23.87
2022-09-11T06:58:45.230Z,27.50
2022-09-11T07:01:17.366Z,25.77
2022-09-11T07:03:53.241Z,25.23
2022-09-11T07:06:23.033Z,27.30
2022-09-11T07:09:02.467Z,26.53
2022-09-11T07:11:32.441Z,23.20
2022-09-11T07:14:01.454Z,23.30
2022-09-11T07:16:28.515Z,25.07
2022-09-11T07:18:55.488Z,24.60
2022-09-11T07:21:25.645Z,26.47
2022-09-11T07:23:55.366Z,27.77
2022-09-11T07:26:23.798Z,23.60
2022-09-11T07:28:51.733Z,23.50
2022-09-11T07:31:21.644Z,23.90
2022-09-11T07:33:50.419Z,23.30
2022-09-11T07:36:23.418Z,21.40
2022-09-11T07:38:53.238Z,21.87
2022-09-11T07:41:23.740Z,21.90
2022-09-11T07:44:00.061Z,23.10
2022-09-11T07:46:27.838Z,23.17
2022-09-11T07:48:58.016Z,22.83
2022-09-11T07:51:26.962Z,21.93
2022-09-11T07:53:56.394Z,23.80
2022-09-11T07:56:27.915Z,22.00
2022-09-11T07:58:58.390Z,20.57
2022-09-11T08:01:27.850Z,21.80
2022-09-11T08:03:59.444Z,19.43
2022-09-11T08:06:28.375Z,20.57
2022-09-11T08:08:57.538Z,20.03
2022-09-11T08:11:25.378Z,20.00
2022-09-11T08:13:54.135Z,21.73
2022-09-11T08:16:23.435Z,22.70
2022-09-11T08:18:50.477Z,21.17
2022-09-11T08:21:17.358Z,18.80
2022-09-11T08:23:45.529Z,21.50
2022-09-11T08:26:21.830Z,20.70
2022-09-11T08:28:50.358Z,20.90
2022-09-11T08:31:20.269Z,20.00
2022-09-11T08:33:49.080Z,19.63
2022-09-11T08:36:16.303Z,19.47
2022-09-11T08:38:44.325Z,19.60
2022-09-11T08:41:34.704Z,19.67
2022-09-11T08:44:28.482Z,19.50
2022-09-11T08:47:06.626Z,17.87
2022-09-11T08:49:47.214Z,19.50
2022-09-11T08:52:16.912Z,17.67
2022-09-11T08:54:46.380Z,18.17
2022-09-11T08:57:41.387Z,18.70
2022-09-11T09:00:32.204Z,18.90
2022-09-11T09:03:46.667Z,18.23
2022-09-11T09:06:24.760Z,18.23
2022-09-11T09:09:22.373Z,18.23
2022-09-11T09:12:16.189Z,16.97
2022-09-11T09:15:29.149Z,18.60
2022-09-11T09:18:19.132Z,17.57
2022-09-11T09:20:56.974Z,18.73
2022-09-11T09:23:30.611Z,19.10
2022-09-11T09:25:57.857Z,19.60
2022-09-11T09:28:34.048Z,17.17
2022-09-11T09:31:06.544Z,18.70
2022-09-11T09:33:54.720Z,19.33
2022-09-11T09:36:31.451Z,17.17
2022-09-11T09:38:58.799Z,18.60
2022-09-11T09:41:42.447Z,18.80
2022-09-11T09:47:33.623Z,18.23
2022-09-11T09:50:00.614Z,17.63
2022-09-11T09:52:35.168Z,15.80
2022-09-11T09:55:05.069Z,15.73
2022-09-11T09:57:37.380Z,16.07
2022-09-11T10:00:22.468Z,16.03
2022-09-11T10:02:54.881Z,15.60
2022-09-11T10:05:41.390Z,17.47
2022-09-11T10:08:33.973Z,16.53
2022-09-11T10:11:06.592Z,18.90
2022-09-11T10:13:41.890Z,15.70
2022-09-11T10:16:31.214Z,17.00
2022-09-11T10:18:58.222Z,16.73
2022-09-11T10:21:30.351Z,16.03
2022-09-11T10:24:23.424Z,16.90
2022-09-11T10:26:53.307Z,16.13
2022-09-11T10:29:24.505Z,16.87
2022-09-11T10:31:54.905Z,16.83
2022-09-11T10:34:25.485Z,16.53
2022-09-11T10:37:00.942Z,16.63
2022-09-11T10:39:30.847Z,14.20
2022-09-11T10:42:03.614Z,16.53
2022-09-11T10:44:30.861Z,16.43
2022-09-11T10:47:25.176Z,16.57
2022-09-11T10:50:25.678Z,15.47
2022-09-11T10:53:18.879Z,16.40
2022-09-11T10:56:06.114Z,15.10
2022-09-11T10:58:37.830Z,15.83
2022-09-11T11:01:04.954Z,15.20
2022-09-11T11:03:32.055Z,16.57
2022-09-11T11:06:25.898Z,17.07
2022-09-11T11:09:14.866Z,17.27
2022-09-11T11:12:06.784Z,16.30
2022-09-11T11:15:07.119Z,15.63
2022-09-11T11:18:16.104Z,15.33
2022-09-11T11:21:19.312Z,15.57
2022-09-11T11:24:03.628Z,15.47
2022-09-11T11:26:50.829Z,16.37
2022-09-11T11:29:29.695Z,14.77
2022-09-11T11:32:34.052Z,13.93
2022-09-11T11:35:41.029Z,14.70
2022-09-11T11:38:20.405Z,14.13
2022-09-11T11:40:54.688Z,14.23
2022-09-11T11:43:27.568Z,14.47
2022-09-11T11:46:02.426Z,15.03
2022-09-11T11:48:45.844Z,12.40
2022-09-11T11:51:18.271Z,12.57
2022-09-11T11:54:01.908Z,12.00
2022-09-11T11:56:41.430Z,12.40
2022-09-11T11:59:40.853Z,12.60
2022-09-11T12:02:23.860Z,12.43
2022-09-11T12:05:03.601Z,12.33
2022-09-11T12:07:33.580Z,11.90
2022-09-11T12:10:02.702Z,11.93
2022-09-11T12:12:33.918Z,11.90
2022-09-11T12:15:19.941Z,12.83
2022-09-11T12:18:00.342Z,13.20
2022-09-11T12:20:39.173Z,12.73
2022-09-11T12:23:27.064Z,12.70
2022-09-11T12:26:25.271Z,12.20
2022-09-11T12:29:50.093Z,13.43
2022-09-11T12:32:24.600Z,13.17
2022-09-11T12:35:23.461Z,12.20
2022-09-11T12:38:18.065Z,10.23
2022-09-11T12:40:56.443Z,11.30
2022-09-11T12:43:56.142Z,9.80
2022-09-11T12:47:04.152Z,10.33
2022-09-11T12:49:32.040Z,9.73
2022-09-11T12:52:01.560Z,9.27
2022-09-11T12:54:41.229Z,8.57
2022-09-11T12:57:31.718Z,7.90
2022-09-11T13:00:03.980Z,8.17
2022-09-11T13:02:57.026Z,8.30
2022-09-11T13:05:34.602Z,6.55
2022-09-11T13:08:23.527Z,7.60
2022-09-11T13:10:50.847Z,6.57
2022-09-11T13:13:45.219Z,19.55
2022-09-11T13:16:31.205Z,7.60
2022-09-11T13:19:17.280Z,7.90
2022-09-11T13:21:49.554Z,7.60
2022-09-11T13:24:32.326Z,8.80
2022-09-11T13:27:03.283Z,8.10
2022-09-11T13:29:33.774Z,7.83
2022-09-11T13:32:14.914Z,9.30
2022-09-11T13:34:53.012Z,15.13
2022-09-11T13:37:39.951Z,7.80
2022-09-11T13:40:18.551Z,7.87
2022-09-11T13:42:45.780Z,6.57
2022-09-11T13:45:18.628Z,7.20
2022-09-11T13:47:45.696Z,7.40
2022-09-11T13:50:15.862Z,6.27
2022-09-11T13:52:44.845Z,6.45
2022-09-11T13:55:19.249Z,4.97
2022-09-11T13:57:58.664Z,5.40
2022-09-11T14:00:45.671Z,4.75
2022-09-11T14:03:22.410Z,4.22
2022-09-11T14:05:54.057Z,5.28
2022-09-11T14:08:37.627Z,4.68
2022-09-11T14:11:33.922Z,6.88
2022-09-11T14:14:06.390Z,6.50
2022-09-11T14:16:37.661Z,5.95
2022-09-11T14:19:21.523Z,6.50
2022-09-11T14:21:50.660Z,6.73
2022-09-11T14:24:36.057Z,6.90
2022-09-11T14:27:24.389Z,7.30
2022-09-11T14:29:55.672Z,6.97
2022-09-11T14:32:40.301Z,6.00
2022-09-11T14:35:10.420Z,10.13
2022-09-11T14:37:44.076Z,7.40
2022-09-11T14:40:19.262Z,6.40
2022-09-11T14:42:46.789Z,8.00
2022-09-11T14:45:23.024Z,9.50
2022-09-11T14:47:50.394Z,7.63
2022-09-11T14:50:17.488Z,12.13
2022-09-11T14:52:44.523Z,10.10
2022-09-11T14:55:19.565Z,16.40
2022-09-11T14:57:48.039Z,12.37
2022-09-11T15:00:17.465Z,34.13
2022-09-11T15:02:44.646Z,10.00
2022-09-11T15:05:17.094Z,10.47
2022-09-11T15:07:46.809Z,9.50
2022-09-11T15:10:14.767Z,10.13
2022-09-11T15:12:42.703Z,9.10
2022-09-11T15:15:10.402Z,9.97
2022-09-11T15:17:37.533Z,9.23
2022-09-11T15:20:07.317Z,8.23
2022-09-11T15:22:34.878Z,7.83
2022-09-11T15:25:02.261Z,8.77
2022-09-11T15:27:29.210Z,9.30
2022-09-11T15:29:56.128Z,8.57
2022-09-11T15:32:23.319Z,9.20
2022-09-11T15:34:51.835Z,8.97
2022-09-11T15:37:18.948Z,8.30
2022-09-11T15:39:45.988Z,9.23
2022-09-11T15:42:13.484Z,8.00
2022-09-11T15:44:40.398Z,14.10
2022-09-11T15:47:07.339Z,11.50
2022-09-11T15:49:40.439Z,8.60
2022-09-11T15:52:07.383Z,8.80
2022-09-11T15:54:34.614Z,9.13
2022-09-11T15:57:04.335Z,8.63
2022-09-11T15:59:31.304Z,8.93
2022-09-11T16:01:59.402Z,7.77
2022-09-11T16:04:29.046Z,8.30
2022-09-11T16:06:56.306Z,8.83
2022-09-11T16:09:26.055Z,13.87
2022-09-11T16:11:54.642Z,8.80
2022-09-11T16:14:25.238Z,10.67
2022-09-11T16:16:53.419Z,10.00
2022-09-11T16:19:22.861Z,9.30
2022-09-11T16:21:55.142Z,11.80
2022-09-11T16:24:23.286Z,9.10
2022-09-11T16:26:50.566Z,9.10
2022-09-11T16:29:21.286Z,10.37
2022-09-11T16:31:48.626Z,9.07
2022-09-11T16:34:18.334Z,9.00
2022-09-11T16:36:47.013Z,9.40
2022-09-11T16:39:16.312Z,9.43
2022-09-11T16:41:43.876Z,8.40
2022-09-11T16:44:14.314Z,9.77
2022-09-11T16:46:42.399Z,10.27
2022-09-11T16:49:10.591Z,8.93
2022-09-11T16:51:37.521Z,9.47
2022-09-11T16:54:04.676Z,8.60
2022-09-11T16:56:31.775Z,9.83
2022-09-11T16:58:58.910Z,9.90
2022-09-11T17:01:27.751Z,9.23
2022-09-11T17:03:57.571Z,9.80
2022-09-11T17:06:30.368Z,10.97
2022-09-11T17:09:00.160Z,10.90
2022-09-11T17:11:28.732Z,10.73
2022-09-11T17:13:56.148Z,9.73
2022-09-11T17:16:26.485Z,10.30
2022-09-11T17:18:55.054Z,11.30
2022-09-11T17:21:24.301Z,11.63
2022-09-11T17:23:53.494Z,9.90
2022-09-11T17:26:21.428Z,12.67
2022-09-11T17:28:50.141Z,12.07
2022-09-11T17:31:19.427Z,10.90
2022-09-11T17:33:48.103Z,11.50
2022-09-11T17:36:18.144Z,11.57
2022-09-11T17:38:46.834Z,11.77
2022-09-11T17:41:14.602Z,11.80
2022-09-11T17:43:41.689Z,12.50
2022-09-11T17:46:12.243Z,12.23
2022-09-11T17:48:40.169Z,11.87
2022-09-11T17:51:36.274Z,11.27
2022-09-11T17:54:03.284Z,12.50
2022-09-11T17:56:31.247Z,13.97
2022-09-11T17:59:00.039Z,14.70
2022-09-11T18:01:29.960Z,17.00
2022-09-11T18:03:58.736Z,15.17
2022-09-11T18:06:28.463Z,15.67
2022-09-11T18:09:02.027Z,21.60
2022-09-11T18:11:30.447Z,18.53
2022-09-11T18:13:58.553Z,16.30
2022-09-11T18:16:25.781Z,16.17
2022-09-11T18:18:52.769Z,15.50
2022-09-11T18:21:19.782Z,75.80
2022-09-11T18:23:46.840Z,15.97
2022-09-11T18:26:29.909Z,27.80
2022-09-11T18:29:00.061Z,48.87
2022-09-11T18:31:30.176Z,17.30
2022-09-11T18:34:00.282Z,47.17
2022-09-11T18:36:31.476Z,45.10
2022-09-11T18:39:01.541Z,31.87
2022-09-11T18:41:30.715Z,25.13
2022-09-11T18:44:00.186Z,18.70
2022-09-11T18:46:27.728Z,17.70
2022-09-11T18:48:56.078Z,16.00
2022-09-11T18:51:23.212Z,16.00
2022-09-11T18:53:54.112Z,18.47
2022-09-11T18:56:23.109Z,45.37
2022-09-11T18:58:52.471Z,24.50
2022-09-11T19:01:22.934Z,18.50
2022-09-11T19:03:52.018Z,23.57
2022-09-11T19:06:21.842Z,25.73
2022-09-11T19:08:49.470Z,18.80
2022-09-11T19:11:25.314Z,21.60
2022-09-11T19:14:06.400Z,16.67
2022-09-11T19:16:34.010Z,18.53
2022-09-11T19:19:01.591Z,17.50
2022-09-11T19:21:28.874Z,18.70
2022-09-11T19:24:00.159Z,18.53
2022-09-11T19:26:39.053Z,18.37
2022-09-11T19:29:08.715Z,16.97
2022-09-11T19:31:36.636Z,18.43
2022-09-11T19:34:03.594Z,18.93
2022-09-11T19:36:32.983Z,18.00
2022-09-11T19:39:00.899Z,17.43
2022-09-11T19:41:33.668Z,22.40
2022-09-11T19:44:06.024Z,20.43
2022-09-11T19:46:34.967Z,19.23
2022-09-11T19:49:03.631Z,18.13
2022-09-11T19:51:33.698Z,18.13
2022-09-11T19:54:05.078Z,20.37
2022-09-11T19:56:33.897Z,19.70
2022-09-11T19:59:00.863Z,18.00
2022-09-11T20:01:32.541Z,22.30
2022-09-11T20:04:00.712Z,19.47
2022-09-11T20:06:30.612Z,20.27
2022-09-11T20:09:19.702Z,19.00
2022-09-11T20:11:45.692Z,17.03
2022-09-11T20:14:12.758Z,18.27
2022-09-11T20:16:39.960Z,18.17
2022-09-11T20:19:07.525Z,17.90
2022-09-11T20:21:36.186Z,18.50
2022-09-11T20:24:05.306Z,21.50
2022-09-11T20:26:33.380Z,18.10
2022-09-11T20:29:03.345Z,19.70
2022-09-11T20:31:33.021Z,19.63
2022-09-11T20:34:00.835Z,19.00
2022-09-11T20:36:30.002Z,18.57
2022-09-11T20:39:00.869Z,21.30
2022-09-11T20:41:29.869Z,20.30
2022-09-11T20:44:02.445Z,20.50
2022-09-11T20:46:29.533Z,20.00
2022-09-11T20:48:56.841Z,19.83
2022-09-11T20:51:24.360Z,21.20
2022-09-11T20:53:51.729Z,22.03
2022-09-11T20:56:20.795Z,22.23
2022-09-11T20:58:48.216Z,22.83
2022-09-11T21:01:19.041Z,22.17
2022-09-11T21:03:51.747Z,20.50
2022-09-11T21:06:24.924Z,22.57
2022-09-11T21:08:55.696Z,24.03
2022-09-11T21:11:24.835Z,23.97
2022-09-11T21:13:52.269Z,43.13
2022-09-11T21:16:20.070Z,22.57
2022-09-11T21:18:53.140Z,23.13
2022-09-11T21:21:21.730Z,24.20
2022-09-11T21:23:49.396Z,22.10
2022-09-11T21:26:18.073Z,23.10
2022-09-11T21:28:45.370Z,23.43
2022-09-11T21:31:13.036Z,23.43
2022-09-11T21:33:40.761Z,24.10
2022-09-11T21:36:08.331Z,24.77
2022-09-11T21:38:36.799Z,25.27
2022-09-11T21:41:06.717Z,25.83
2022-09-11T21:43:34.236Z,34.47
2022-09-11T21:46:01.433Z,39.17
2022-09-11T21:48:32.354Z,59.53
2022-09-11T21:51:20.744Z,41.17
2022-09-11T21:53:49.595Z,34.67
2022-09-11T21:56:24.973Z,34.27
2022-09-11T21:58:52.791Z,26.70
2022-09-11T22:01:20.742Z,24.70
2022-09-11T22:03:47.900Z,26.03
2022-09-11T22:06:15.238Z,28.20
2022-09-11T22:08:43.465Z,22.50
2022-09-11T22:11:11.292Z,25.50
2022-09-11T22:13:38.603Z,28.10
2022-09-11T22:16:11.423Z,26.10
2022-09-11T22:18:40.066Z,27.17
2022-09-11T22:21:08.320Z,27.20
2022-09-11T22:23:35.424Z,25.43
2022-09-11T22:26:11.321Z,24.80
2022-09-11T22:28:38.905Z,24.80
2022-09-11T22:31:15.119Z,28.00
2022-09-11T22:33:42.980Z,26.33
2022-09-11T22:36:12.421Z,24.63
2022-09-11T22:38:39.545Z,26.33
2022-09-11T22:41:07.095Z,26.87
2022-09-11T22:43:34.099Z,25.10
2022-09-11T22:46:01.754Z,28.33
2022-09-11T22:48:29.003Z,27.43
2022-09-11T22:50:57.576Z,27.20
2022-09-11T22:53:25.801Z,27.10
2022-09-11T22:55:54.088Z,27.30
2022-09-11T22:58:21.763Z,27.30
2022-09-11T23:00:49.750Z,25.63
2022-09-11T23:03:16.908Z,25.77
2022-09-11T23:06:02.203Z,26.60
2022-09-11T23:08:30.836Z,24.10
2022-09-11T23:11:03.148Z,22.57
2022-09-11T23:13:31.740Z,26.57
2022-09-11T23:15:59.600Z,27.37
2022-09-11T23:18:27.739Z,28.40
2022-09-11T23:20:56.633Z,30.00
2022-09-11T23:23:24.901Z,26.80
2022-09-11T23:25:52.076Z,29.50
2022-09-11T23:28:19.599Z,27.07
2022-09-11T23:30:46.945Z,25.97
2022-09-11T23:33:14.097Z,28.60
2022-09-11T23:35:41.358Z,28.60
2022-09-11T23:38:08.570Z,29.87
2022-09-11T23:40:35.391Z,28.13
2022-09-11T23:43:02.521Z,26.80
2022-09-11T23:45:29.780Z,27.87
2022-09-11T23:47:56.874Z,27.70
2022-09-11T23:50:23.755Z,29.17
2022-09-11T23:52:51.342Z,28.40
2022-09-11T23:55:19.239Z,28.87
2022-09-11T23:57:47.903Z,29.00
